sensor_id;sensor_type;location;lat;lon;timestamp;P1;durP1;ratioP1;P2;durP2;ratioP2
24173;SDS011;12324;48.146;11.502;2022-10-26T00:01:07;8.05;;;3.28;;
24173;SDS011;12324;48.146;11.502;2022-10-26T00:03:42;5.50;;;2.55;;
24173;SDS011;12324;48.146;11.502;2022-10-26T00:06:11;8.43;;;2.75;;
24173;SDS011;12324;48.146;11.502;2022-10-26T00:08:42;5.70;;;2.72;;
24173;SDS011;12324;48.146;11.502;2022-10-26T00:11:10;9.05;;;3.22;;
24173;SDS011;12324;48.146;11.502;2022-10-26T00:13:37;9.45;;;2.90;;
24173;SDS011;12324;48.146;11.502;2022-10-26T00:16:08;5.70;;;2.58;;
24173;SDS011;12324;48.146;11.502;2022-10-26T00:18:36;6.43;;;2.95;;
24173;SDS011;12324;48.146;11.502;2022-10-26T00:21:04;8.55;;;2.90;;
24173;SDS011;12324;48.146;11.502;2022-10-26T00:23:32;9.10;;;3.00;;
24173;SDS011;12324;48.146;11.502;2022-10-26T00:25:58;6.45;;;3.38;;
24173;SDS011;12324;48.146;11.502;2022-10-26T00:28:25;8.70;;;3.15;;
24173;SDS011;12324;48.146;11.502;2022-10-26T00:30:52;7.35;;;2.55;;
24173;SDS011;12324;48.146;11.502;2022-10-26T00:33:19;5.65;;;2.35;;
24173;SDS011;12324;48.146;11.502;2022-10-26T00:35:47;8.13;;;2.60;;
24173;SDS011;12324;48.146;11.502;2022-10-26T00:38:14;5.57;;;2.22;;
24173;SDS011;12324;48.146;11.502;2022-10-26T00:40:41;7.93;;;2.33;;
24173;SDS011;12324;48.146;11.502;2022-10-26T00:43:31;7.22;;;2.20;;
24173;SDS011;12324;48.146;11.502;2022-10-26T00:45:59;4.45;;;2.33;;
24173;SDS011;12324;48.146;11.502;2022-10-26T00:48:28;6.75;;;2.47;;
24173;SDS011;12324;48.146;11.502;2022-10-26T00:50:56;7.82;;;2.40;;
24173;SDS011;12324;48.146;11.502;2022-10-26T00:53:24;5.18;;;2.10;;
24173;SDS011;12324;48.146;11.502;2022-10-26T00:55:51;5.63;;;2.42;;
24173;SDS011;12324;48.146;11.502;2022-10-26T00:58:19;6.82;;;2.55;;
24173;SDS011;12324;48.146;11.502;2022-10-26T01:00:47;7.22;;;2.22;;
24173;SDS011;12324;48.146;11.502;2022-10-26T01:03:14;7.90;;;2.65;;
24173;SDS011;12324;48.146;11.502;2022-10-26T01:05:42;3.22;;;1.80;;
24173;SDS011;12324;48.146;11.502;2022-10-26T01:08:10;5.30;;;2.42;;
24173;SDS011;12324;48.146;11.502;2022-10-26T01:10:38;4.03;;;2.10;;
24173;SDS011;12324;48.146;11.502;2022-10-26T01:13:06;5.18;;;2.33;;
24173;SDS011;12324;48.146;11.502;2022-10-26T01:18:26;6.72;;;2.22;;
24173;SDS011;12324;48.146;11.502;2022-10-26T01:23:49;7.45;;;2.53;;
24173;SDS011;12324;48.146;11.502;2022-10-26T01:26:32;4.82;;;1.90;;
24173;SDS011;12324;48.146;11.502;2022-10-26T01:31:34;6.45;;;2.67;;
24173;SDS011;12324;48.146;11.502;2022-10-26T01:34:24;3.72;;;2.10;;
24173;SDS011;12324;48.146;11.502;2022-10-26T01:36:56;7.25;;;2.90;;
24173;SDS011;12324;48.146;11.502;2022-10-26T01:40:09;5.30;;;2.60;;
24173;SDS011;12324;48.146;11.502;2022-10-26T01:42:15;5.47;;;2.40;;
24173;SDS011;12324;48.146;11.502;2022-10-26T01:44:56;4.28;;;2.45;;
24173;SDS011;12324;48.146;11.502;2022-10-26T01:47:25;11.32;;;2.72;;
24173;SDS011;12324;48.146;11.502;2022-10-26T01:49:54;8.35;;;2.80;;
24173;SDS011;12324;48.146;11.502;2022-10-26T01:52:22;4.18;;;2.17;;
24173;SDS011;12324;48.146;11.502;2022-10-26T01:54:49;5.90;;;2.97;;
24173;SDS011;12324;48.146;11.502;2022-10-26T01:57:18;5.47;;;2.40;;
24173;SDS011;12324;48.146;11.502;2022-10-26T02:12:50;4.70;;;2.38;;
24173;SDS011;12324;48.146;11.502;2022-10-26T02:17:50;6.18;;;2.33;;
24173;SDS011;12324;48.146;11.502;2022-10-26T02:20:21;5.18;;;2.45;;
24173;SDS011;12324;48.146;11.502;2022-10-26T02:22:50;6.93;;;2.33;;
24173;SDS011;12324;48.146;11.502;2022-10-26T02:25:23;4.38;;;2.15;;
24173;SDS011;12324;48.146;11.502;2022-10-26T02:27:55;4.40;;;2.30;;
24173;SDS011;12324;48.146;11.502;2022-10-26T02:30:23;5.18;;;2.42;;
24173;SDS011;12324;48.146;11.502;2022-10-26T02:32:51;4.95;;;3.20;;
24173;SDS011;12324;48.146;11.502;2022-10-26T02:35:21;6.13;;;2.63;;
24173;SDS011;12324;48.146;11.502;2022-10-26T02:37:49;5.63;;;2.72;;
24173;SDS011;12324;48.146;11.502;2022-10-26T02:40:22;4.28;;;2.10;;
24173;SDS011;12324;48.146;11.502;2022-10-26T02:42:51;13.27;;;2.17;;
24173;SDS011;12324;48.146;11.502;2022-10-26T02:45:20;12.00;;;2.58;;
24173;SDS011;12324;48.146;11.502;2022-10-26T02:47:49;5.28;;;2.20;;
24173;SDS011;12324;48.146;11.502;2022-10-26T02:50:16;4.25;;;2.22;;
24173;SDS011;12324;48.146;11.502;2022-10-26T02:52:48;4.88;;;2.13;;
24173;SDS011;12324;48.146;11.502;2022-10-26T02:55:24;4.43;;;2.15;;
24173;SDS011;12324;48.146;11.502;2022-10-26T02:57:53;1.45;;;1.33;;
24173;SDS011;12324;48.146;11.502;2022-10-26T03:00:21;5.88;;;2.63;;
24173;SDS011;12324;48.146;11.502;2022-10-26T03:02:52;4.75;;;2.08;;
24173;SDS011;12324;48.146;11.502;2022-10-26T03:05:24;4.13;;;2.05;;
24173;SDS011;12324;48.146;11.502;2022-10-26T03:07:52;4.10;;;2.05;;
24173;SDS011;12324;48.146;11.502;2022-10-26T03:10:19;3.30;;;2.00;;
24173;SDS011;12324;48.146;11.502;2022-10-26T03:12:47;5.68;;;2.75;;
24173;SDS011;12324;48.146;11.502;2022-10-26T03:15:14;3.20;;;2.22;;
24173;SDS011;12324;48.146;11.502;2022-10-26T03:17:41;5.70;;;2.72;;
24173;SDS011;12324;48.146;11.502;2022-10-26T03:20:08;2.80;;;2.38;;
24173;SDS011;12324;48.146;11.502;2022-10-26T03:22:36;4.47;;;2.20;;
24173;SDS011;12324;48.146;11.502;2022-10-26T03:25:03;7.18;;;2.38;;
24173;SDS011;12324;48.146;11.502;2022-10-26T03:27:30;6.95;;;2.50;;
24173;SDS011;12324;48.146;11.502;2022-10-26T03:29:57;5.85;;;2.30;;
24173;SDS011;12324;48.146;11.502;2022-10-26T03:32:24;5.13;;;2.20;;
24173;SDS011;12324;48.146;11.502;2022-10-26T03:34:51;4.03;;;2.20;;
24173;SDS011;12324;48.146;11.502;2022-10-26T03:37:18;8.98;;;2.30;;
24173;SDS011;12324;48.146;11.502;2022-10-26T03:39:45;7.18;;;2.95;;
24173;SDS011;12324;48.146;11.502;2022-10-26T03:42:12;3.85;;;2.05;;
24173;SDS011;12324;48.146;11.502;2022-10-26T03:44:39;6.13;;;2.40;;
24173;SDS011;12324;48.146;11.502;2022-10-26T03:47:06;3.25;;;2.28;;
24173;SDS011;12324;48.146;11.502;2022-10-26T03:49:33;3.17;;;2.00;;
24173;SDS011;12324;48.146;11.502;2022-10-26T03:52:01;4.72;;;2.20;;
24173;SDS011;12324;48.146;11.502;2022-10-26T03:54:28;3.58;;;1.92;;
24173;SDS011;12324;48.146;11.502;2022-10-26T03:56:55;5.05;;;2.20;;
24173;SDS011;12324;48.146;11.502;2022-10-26T03:59:22;7.20;;;2.83;;
24173;SDS011;12324;48.146;11.502;2022-10-26T04:01:49;3.30;;;1.75;;
24173;SDS011;12324;48.146;11.502;2022-10-26T04:04:22;5.13;;;2.33;;
24173;SDS011;12324;48.146;11.502;2022-10-26T04:06:49;7.65;;;2.25;;
24173;SDS011;12324;48.146;11.502;2022-10-26T04:09:16;2.28;;;1.98;;
24173;SDS011;12324;48.146;11.502;2022-10-26T04:11:43;5.10;;;2.30;;
24173;SDS011;12324;48.146;11.502;2022-10-26T04:14:10;7.03;;;2.15;;
24173;SDS011;12324;48.146;11.502;2022-10-26T04:16:37;6.40;;;2.10;;
24173;SDS011;12324;48.146;11.502;2022-10-26T04:19:04;5.13;;;2.50;;
24173;SDS011;12324;48.146;11.502;2022-10-26T04:21:32;5.47;;;2.10;;
24173;SDS011;12324;48.146;11.502;2022-10-26T04:24:00;6.70;;;2.15;;
24173;SDS011;12324;48.146;11.502;2022-10-26T04:26:27;7.05;;;2.65;;
24173;SDS011;12324;48.146;11.502;2022-10-26T04:28:54;2.08;;;1.77;;
24173;SDS011;12324;48.146;11.502;2022-10-26T04:31:22;3.30;;;1.95;;
24173;SDS011;12324;48.146;11.502;2022-10-26T04:33:49;3.70;;;1.75;;
24173;SDS011;12324;48.146;11.502;2022-10-26T04:36:16;3.15;;;2.13;;
24173;SDS011;12324;48.146;11.502;2022-10-26T04:38:43;5.20;;;2.15;;
24173;SDS011;12324;48.146;11.502;2022-10-26T04:41:10;4.05;;;1.98;;
24173;SDS011;12324;48.146;11.502;2022-10-26T04:43:37;3.08;;;1.60;;
24173;SDS011;12324;48.146;11.502;2022-10-26T04:46:04;2.53;;;1.77;;
24173;SDS011;12324;48.146;11.502;2022-10-26T04:48:31;3.47;;;1.95;;
24173;SDS011;12324;48.146;11.502;2022-10-26T04:50:58;2.78;;;1.98;;
24173;SDS011;12324;48.146;11.502;2022-10-26T04:53:26;4.60;;;2.10;;
24173;SDS011;12324;48.146;11.502;2022-10-26T04:55:56;4.68;;;2.15;;
24173;SDS011;12324;48.146;11.502;2022-10-26T04:58:24;6.45;;;2.30;;
24173;SDS011;12324;48.146;11.502;2022-10-26T05:00:51;5.63;;;2.13;;
24173;SDS011;12324;48.146;11.502;2022-10-26T05:03:18;5.78;;;2.42;;
24173;SDS011;12324;48.146;11.502;2022-10-26T05:05:45;9.27;;;2.30;;
24173;SDS011;12324;48.146;11.502;2022-10-26T05:08:13;5.82;;;2.67;;
24173;SDS011;12324;48.146;11.502;2022-10-26T05:10:40;3.25;;;2.00;;
24173;SDS011;12324;48.146;11.502;2022-10-26T05:13:07;5.57;;;2.50;;
24173;SDS011;12324;48.146;11.502;2022-10-26T05:15:34;7.82;;;2.75;;
24173;SDS011;12324;48.146;11.502;2022-10-26T05:18:02;7.03;;;2.33;;
24173;SDS011;12324;48.146;11.502;2022-10-26T05:20:31;3.53;;;1.95;;
24173;SDS011;12324;48.146;11.502;2022-10-26T05:23:05;20.52;;;9.45;;
24173;SDS011;12324;48.146;11.502;2022-10-26T05:28:03;7.95;;;3.42;;
24173;SDS011;12324;48.146;11.502;2022-10-26T05:30:31;6.78;;;2.78;;
24173;SDS011;12324;48.146;11.502;2022-10-26T05:32:58;10.65;;;3.72;;
24173;SDS011;12324;48.146;11.502;2022-10-26T05:35:27;9.80;;;3.58;;
24173;SDS011;12324;48.146;11.502;2022-10-26T05:37:54;4.85;;;2.45;;
24173;SDS011;12324;48.146;11.502;2022-10-26T05:40:21;12.85;;;4.15;;
24173;SDS011;12324;48.146;11.502;2022-10-26T05:42:48;6.30;;;2.85;;
24173;SDS011;12324;48.146;11.502;2022-10-26T05:45:19;4.18;;;2.15;;
24173;SDS011;12324;48.146;11.502;2022-10-26T05:47:46;3.97;;;2.20;;
24173;SDS011;12324;48.146;11.502;2022-10-26T05:50:13;5.10;;;2.78;;
24173;SDS011;12324;48.146;11.502;2022-10-26T05:52:41;3.72;;;2.40;;
24173;SDS011;12324;48.146;11.502;2022-10-26T05:55:09;6.40;;;2.63;;
24173;SDS011;12324;48.146;11.502;2022-10-26T05:57:36;5.32;;;2.47;;
24173;SDS011;12324;48.146;11.502;2022-10-26T06:00:08;4.65;;;2.50;;
24173;SDS011;12324;48.146;11.502;2022-10-26T06:05:04;8.85;;;3.05;;
24173;SDS011;12324;48.146;11.502;2022-10-26T06:07:31;7.22;;;3.40;;
24173;SDS011;12324;48.146;11.502;2022-10-26T06:09:58;5.47;;;2.85;;
24173;SDS011;12324;48.146;11.502;2022-10-26T06:12:26;9.05;;;3.05;;
24173;SDS011;12324;48.146;11.502;2022-10-26T06:14:53;4.20;;;2.55;;
24173;SDS011;12324;48.146;11.502;2022-10-26T06:20:18;9.38;;;3.67;;
24173;SDS011;12324;48.146;11.502;2022-10-26T06:31:11;9.30;;;3.42;;
24173;SDS011;12324;48.146;11.502;2022-10-26T06:33:39;7.85;;;2.92;;
24173;SDS011;12324;48.146;11.502;2022-10-26T06:36:10;7.15;;;3.33;;
24173;SDS011;12324;48.146;11.502;2022-10-26T06:38:40;8.27;;;3.13;;
24173;SDS011;12324;48.146;11.502;2022-10-26T06:41:09;8.23;;;3.38;;
24173;SDS011;12324;48.146;11.502;2022-10-26T06:43:39;9.68;;;3.50;;
24173;SDS011;12324;48.146;11.502;2022-10-26T06:48:52;6.47;;;2.97;;
24173;SDS011;12324;48.146;11.502;2022-10-26T06:51:22;7.88;;;3.17;;
24173;SDS011;12324;48.146;11.502;2022-10-26T06:53:54;15.85;;;3.80;;
24173;SDS011;12324;48.146;11.502;2022-10-26T06:56:23;9.07;;;3.35;;
24173;SDS011;12324;48.146;11.502;2022-10-26T06:58:51;7.18;;;3.30;;
24173;SDS011;12324;48.146;11.502;2022-10-26T07:01:20;7.15;;;2.75;;
24173;SDS011;12324;48.146;11.502;2022-10-26T07:03:47;9.90;;;2.88;;
24173;SDS011;12324;48.146;11.502;2022-10-26T07:06:14;6.22;;;2.58;;
24173;SDS011;12324;48.146;11.502;2022-10-26T07:08:41;7.07;;;2.50;;
24173;SDS011;12324;48.146;11.502;2022-10-26T07:11:08;3.80;;;2.15;;
24173;SDS011;12324;48.146;11.502;2022-10-26T07:13:35;6.65;;;2.83;;
24173;SDS011;12324;48.146;11.502;2022-10-26T07:16:02;9.82;;;2.70;;
24173;SDS011;12324;48.146;11.502;2022-10-26T07:18:29;10.65;;;3.15;;
24173;SDS011;12324;48.146;11.502;2022-10-26T07:20:57;6.65;;;3.30;;
24173;SDS011;12324;48.146;11.502;2022-10-26T07:23:24;7.53;;;3.08;;
24173;SDS011;12324;48.146;11.502;2022-10-26T07:25:51;6.47;;;2.28;;
24173;SDS011;12324;48.146;11.502;2022-10-26T07:28:18;6.97;;;2.55;;
24173;SDS011;12324;48.146;11.502;2022-10-26T07:30:45;5.65;;;2.10;;
24173;SDS011;12324;48.146;11.502;2022-10-26T07:33:12;4.72;;;2.25;;
24173;SDS011;12324;48.146;11.502;2022-10-26T07:35:40;5.60;;;2.40;;
24173;SDS011;12324;48.146;11.502;2022-10-26T07:38:07;5.03;;;2.03;;
24173;SDS011;12324;48.146;11.502;2022-10-26T07:40:35;4.95;;;2.08;;
24173;SDS011;12324;48.146;11.502;2022-10-26T07:43:03;4.43;;;2.33;;
24173;SDS011;12324;48.146;11.502;2022-10-26T07:45:30;7.90;;;2.42;;
24173;SDS011;12324;48.146;11.502;2022-10-26T07:47:57;5.43;;;2.00;;
24173;SDS011;12324;48.146;11.502;2022-10-26T07:50:24;3.38;;;1.90;;
24173;SDS011;12324;48.146;11.502;2022-10-26T07:52:51;6.40;;;1.85;;
24173;SDS011;12324;48.146;11.502;2022-10-26T07:55:19;4.78;;;1.73;;
24173;SDS011;12324;48.146;11.502;2022-10-26T07:57:46;4.30;;;1.70;;
24173;SDS011;12324;48.146;11.502;2022-10-26T08:00:19;4.18;;;1.88;;
24173;SDS011;12324;48.146;11.502;2022-10-26T08:02:47;2.97;;;1.70;;
24173;SDS011;12324;48.146;11.502;2022-10-26T08:05:14;5.10;;;1.98;;
24173;SDS011;12324;48.146;11.502;2022-10-26T08:07:41;3.95;;;1.80;;
24173;SDS011;12324;48.146;11.502;2022-10-26T08:10:10;5.07;;;1.92;;
24173;SDS011;12324;48.146;11.502;2022-10-26T08:12:37;5.25;;;1.83;;
24173;SDS011;12324;48.146;11.502;2022-10-26T08:15:04;4.43;;;1.92;;
24173;SDS011;12324;48.146;11.502;2022-10-26T08:17:31;2.47;;;1.45;;
24173;SDS011;12324;48.146;11.502;2022-10-26T08:19:58;6.85;;;1.88;;
24173;SDS011;12324;48.146;11.502;2022-10-26T08:22:27;4.80;;;2.00;;
24173;SDS011;12324;48.146;11.502;2022-10-26T08:24:54;4.00;;;1.27;;
24173;SDS011;12324;48.146;11.502;2022-10-26T08:27:22;5.85;;;1.48;;
24173;SDS011;12324;48.146;11.502;2022-10-26T08:29:49;3.15;;;1.33;;
24173;SDS011;12324;48.146;11.502;2022-10-26T08:32:16;3.22;;;1.40;;
24173;SDS011;12324;48.146;11.502;2022-10-26T08:34:43;2.47;;;1.30;;
24173;SDS011;12324;48.146;11.502;2022-10-26T08:37:10;3.75;;;1.60;;
24173;SDS011;12324;48.146;11.502;2022-10-26T08:39:37;2.13;;;1.30;;
24173;SDS011;12324;48.146;11.502;2022-10-26T08:42:15;5.10;;;1.52;;
24173;SDS011;12324;48.146;11.502;2022-10-26T08:44:45;7.32;;;2.17;;
24173;SDS011;12324;48.146;11.502;2022-10-26T08:47:17;3.80;;;1.38;;
24173;SDS011;12324;48.146;11.502;2022-10-26T08:49:48;3.10;;;1.70;;
24173;SDS011;12324;48.146;11.502;2022-10-26T08:52:18;4.55;;;1.35;;
24173;SDS011;12324;48.146;11.502;2022-10-26T08:54:49;7.05;;;1.58;;
24173;SDS011;12324;48.146;11.502;2022-10-26T09:02:12;2.55;;;1.40;;
24173;SDS011;12324;48.146;11.502;2022-10-26T09:04:39;4.88;;;1.70;;
24173;SDS011;12324;48.146;11.502;2022-10-26T09:07:10;2.33;;;1.33;;
24173;SDS011;12324;48.146;11.502;2022-10-26T09:12:32;2.15;;;1.42;;
24173;SDS011;12324;48.146;11.502;2022-10-26T09:25:56;4.30;;;1.00;;
24173;SDS011;12324;48.146;11.502;2022-10-26T09:28:24;6.53;;;1.33;;
24173;SDS011;12324;48.146;11.502;2022-10-26T09:30:52;5.60;;;1.35;;
24173;SDS011;12324;48.146;11.502;2022-10-26T09:33:21;4.30;;;1.45;;
24173;SDS011;12324;48.146;11.502;2022-10-26T09:36:00;4.72;;;1.20;;
24173;SDS011;12324;48.146;11.502;2022-10-26T09:38:31;3.17;;;1.35;;
24173;SDS011;12324;48.146;11.502;2022-10-26T09:46:22;3.72;;;1.40;;
24173;SDS011;12324;48.146;11.502;2022-10-26T09:48:51;2.25;;;1.15;;
24173;SDS011;12324;48.146;11.502;2022-10-26T09:51:20;2.83;;;1.13;;
24173;SDS011;12324;48.146;11.502;2022-10-26T09:53:48;3.70;;;1.20;;
24173;SDS011;12324;48.146;11.502;2022-10-26T09:56:15;2.22;;;1.13;;
24173;SDS011;12324;48.146;11.502;2022-10-26T09:58:45;2.55;;;1.40;;
24173;SDS011;12324;48.146;11.502;2022-10-26T10:01:32;6.13;;;1.55;;
24173;SDS011;12324;48.146;11.502;2022-10-26T10:06:35;3.13;;;0.90;;
24173;SDS011;12324;48.146;11.502;2022-10-26T10:09:03;4.93;;;1.92;;
24173;SDS011;12324;48.146;11.502;2022-10-26T10:14:05;3.70;;;1.17;;
24173;SDS011;12324;48.146;11.502;2022-10-26T10:16:33;2.35;;;1.13;;
24173;SDS011;12324;48.146;11.502;2022-10-26T10:19:00;4.65;;;0.82;;
24173;SDS011;12324;48.146;11.502;2022-10-26T10:21:34;3.47;;;1.65;;
24173;SDS011;12324;48.146;11.502;2022-10-26T10:24:02;4.60;;;1.38;;
24173;SDS011;12324;48.146;11.502;2022-10-26T10:26:58;4.15;;;1.52;;
24173;SDS011;12324;48.146;11.502;2022-10-26T10:29:29;5.00;;;1.90;;
24173;SDS011;12324;48.146;11.502;2022-10-26T10:32:00;3.08;;;1.33;;
24173;SDS011;12324;48.146;11.502;2022-10-26T10:34:31;4.20;;;1.05;;
24173;SDS011;12324;48.146;11.502;2022-10-26T10:37:01;3.87;;;1.20;;
24173;SDS011;12324;48.146;11.502;2022-10-26T10:41:59;7.25;;;1.60;;
24173;SDS011;12324;48.146;11.502;2022-10-26T10:44:27;6.97;;;2.08;;
24173;SDS011;12324;48.146;11.502;2022-10-26T10:47:00;5.30;;;1.33;;
24173;SDS011;12324;48.146;11.502;2022-10-26T10:49:28;3.92;;;1.48;;
24173;SDS011;12324;48.146;11.502;2022-10-26T10:51:56;7.43;;;2.05;;
24173;SDS011;12324;48.146;11.502;2022-10-26T10:54:33;6.55;;;1.63;;
24173;SDS011;12324;48.146;11.502;2022-10-26T10:57:17;3.13;;;1.02;;
24173;SDS011;12324;48.146;11.502;2022-10-26T11:00:08;6.22;;;1.55;;
24173;SDS011;12324;48.146;11.502;2022-10-26T11:07:53;4.30;;;1.50;;
24173;SDS011;12324;48.146;11.502;2022-10-26T11:10:21;5.22;;;1.95;;
24173;SDS011;12324;48.146;11.502;2022-10-26T11:12:52;3.15;;;1.73;;
24173;SDS011;12324;48.146;11.502;2022-10-26T11:15:21;3.53;;;1.10;;
24173;SDS011;12324;48.146;11.502;2022-10-26T11:17:52;4.57;;;1.40;;
24173;SDS011;12324;48.146;11.502;2022-10-26T11:20:22;3.72;;;1.40;;
24173;SDS011;12324;48.146;11.502;2022-10-26T11:25:22;5.70;;;1.58;;
24173;SDS011;12324;48.146;11.502;2022-10-26T11:28:01;5.95;;;1.90;;
24173;SDS011;12324;48.146;11.502;2022-10-26T11:30:30;3.78;;;1.42;;
24173;SDS011;12324;48.146;11.502;2022-10-26T11:33:00;3.38;;;1.55;;
24173;SDS011;12324;48.146;11.502;2022-10-26T11:35:31;6.45;;;2.00;;
24173;SDS011;12324;48.146;11.502;2022-10-26T11:40:37;6.82;;;1.75;;
24173;SDS011;12324;48.146;11.502;2022-10-26T11:45:33;6.97;;;2.03;;
24173;SDS011;12324;48.146;11.502;2022-10-26T11:48:21;4.93;;;1.60;;
24173;SDS011;12324;48.146;11.502;2022-10-26T11:50:50;6.82;;;1.83;;
24173;SDS011;12324;48.146;11.502;2022-10-26T11:53:29;10.07;;;3.00;;
24173;SDS011;12324;48.146;11.502;2022-10-26T11:55:58;4.25;;;1.55;;
24173;SDS011;12324;48.146;11.502;2022-10-26T11:58:26;4.28;;;1.75;;
24173;SDS011;12324;48.146;11.502;2022-10-26T12:00:56;7.00;;;2.45;;
24173;SDS011;12324;48.146;11.502;2022-10-26T12:03:27;6.45;;;2.05;;
24173;SDS011;12324;48.146;11.502;2022-10-26T12:05:56;5.97;;;1.90;;
24173;SDS011;12324;48.146;11.502;2022-10-26T12:08:28;6.63;;;2.30;;
24173;SDS011;12324;48.146;11.502;2022-10-26T12:11:07;5.10;;;2.28;;
24173;SDS011;12324;48.146;11.502;2022-10-26T12:13:44;9.45;;;1.98;;
24173;SDS011;12324;48.146;11.502;2022-10-26T12:19:21;6.47;;;2.03;;
24173;SDS011;12324;48.146;11.502;2022-10-26T12:21:51;10.68;;;2.63;;
24173;SDS011;12324;48.146;11.502;2022-10-26T12:27:01;5.95;;;2.42;;
24173;SDS011;12324;48.146;11.502;2022-10-26T12:29:33;9.25;;;2.00;;
24173;SDS011;12324;48.146;11.502;2022-10-26T12:37:22;5.43;;;1.75;;
24173;SDS011;12324;48.146;11.502;2022-10-26T12:39:49;8.07;;;2.28;;
24173;SDS011;12324;48.146;11.502;2022-10-26T12:49:59;10.05;;;1.63;;
24173;SDS011;12324;48.146;11.502;2022-10-26T12:55:38;6.50;;;2.00;;
24173;SDS011;12324;48.146;11.502;2022-10-26T12:58:03;4.90;;;1.65;;
24173;SDS011;12324;48.146;11.502;2022-10-26T13:00:34;9.63;;;2.33;;
24173;SDS011;12324;48.146;11.502;2022-10-26T13:03:13;6.82;;;2.00;;
24173;SDS011;12324;48.146;11.502;2022-10-26T13:08:21;11.68;;;2.78;;
24173;SDS011;12324;48.146;11.502;2022-10-26T13:11:04;9.70;;;2.28;;
24173;SDS011;12324;48.146;11.502;2022-10-26T13:13:33;4.72;;;1.98;;
24173;SDS011;12324;48.146;11.502;2022-10-26T13:16:01;9.23;;;2.47;;
24173;SDS011;12324;48.146;11.502;2022-10-26T13:18:28;6.72;;;2.10;;
24173;SDS011;12324;48.146;11.502;2022-10-26T13:21:08;5.70;;;1.92;;
24173;SDS011;12324;48.146;11.502;2022-10-26T13:23:39;6.03;;;1.95;;
24173;SDS011;12324;48.146;11.502;2022-10-26T13:26:10;7.68;;;2.35;;
24173;SDS011;12324;48.146;11.502;2022-10-26T13:33:51;9.38;;;2.22;;
24173;SDS011;12324;48.146;11.502;2022-10-26T13:36:28;9.00;;;2.20;;
24173;SDS011;12324;48.146;11.502;2022-10-26T13:38:57;6.22;;;1.95;;
24173;SDS011;12324;48.146;11.502;2022-10-26T13:41:33;3.88;;;1.50;;
24173;SDS011;12324;48.146;11.502;2022-10-26T13:44:02;6.45;;;1.85;;
24173;SDS011;12324;48.146;11.502;2022-10-26T13:46:30;6.93;;;1.85;;
24173;SDS011;12324;48.146;11.502;2022-10-26T13:49:03;8.45;;;2.13;;
24173;SDS011;12324;48.146;11.502;2022-10-26T13:51:34;6.70;;;2.03;;
24173;SDS011;12324;48.146;11.502;2022-10-26T13:54:15;4.93;;;1.92;;
24173;SDS011;12324;48.146;11.502;2022-10-26T13:59:21;7.45;;;2.03;;
24173;SDS011;12324;48.146;11.502;2022-10-26T14:02:04;7.10;;;2.40;;
24173;SDS011;12324;48.146;11.502;2022-10-26T14:04:31;7.65;;;1.75;;
24173;SDS011;12324;48.146;11.502;2022-10-26T14:06:58;5.32;;;1.98;;
24173;SDS011;12324;48.146;11.502;2022-10-26T14:09:25;6.75;;;2.30;;
24173;SDS011;12324;48.146;11.502;2022-10-26T14:11:55;5.30;;;1.65;;
24173;SDS011;12324;48.146;11.502;2022-10-26T14:14:24;4.55;;;1.73;;
24173;SDS011;12324;48.146;11.502;2022-10-26T14:16:52;7.35;;;1.90;;
24173;SDS011;12324;48.146;11.502;2022-10-26T14:21:56;5.88;;;2.10;;
24173;SDS011;12324;48.146;11.502;2022-10-26T14:24:26;8.35;;;1.88;;
24173;SDS011;12324;48.146;11.502;2022-10-26T14:27:15;6.78;;;2.65;;
24173;SDS011;12324;48.146;11.502;2022-10-26T14:29:42;7.22;;;2.20;;
24173;SDS011;12324;48.146;11.502;2022-10-26T14:32:24;4.32;;;1.65;;
24173;SDS011;12324;48.146;11.502;2022-10-26T14:34:52;11.52;;;2.63;;
24173;SDS011;12324;48.146;11.502;2022-10-26T14:40:05;6.85;;;1.88;;
24173;SDS011;12324;48.146;11.502;2022-10-26T14:42:37;3.38;;;2.20;;
24173;SDS011;12324;48.146;11.502;2022-10-26T14:45:05;7.63;;;2.50;;
24173;SDS011;12324;48.146;11.502;2022-10-26T14:48:02;8.02;;;2.17;;
24173;SDS011;12324;48.146;11.502;2022-10-26T14:50:30;13.63;;;2.60;;
24173;SDS011;12324;48.146;11.502;2022-10-26T14:53:00;4.68;;;1.83;;
24173;SDS011;12324;48.146;11.502;2022-10-26T14:55:45;6.93;;;1.98;;
24173;SDS011;12324;48.146;11.502;2022-10-26T14:58:14;5.88;;;1.77;;
24173;SDS011;12324;48.146;11.502;2022-10-26T15:00:43;8.18;;;2.17;;
24173;SDS011;12324;48.146;11.502;2022-10-26T15:03:13;6.65;;;2.33;;
24173;SDS011;12324;48.146;11.502;2022-10-26T15:05:41;5.95;;;1.85;;
24173;SDS011;12324;48.146;11.502;2022-10-26T15:11:14;6.55;;;2.15;;
24173;SDS011;12324;48.146;11.502;2022-10-26T15:13:42;12.85;;;2.75;;
24173;SDS011;12324;48.146;11.502;2022-10-26T15:16:19;9.68;;;2.85;;
24173;SDS011;12324;48.146;11.502;2022-10-26T15:18:48;6.97;;;2.10;;
24173;SDS011;12324;48.146;11.502;2022-10-26T15:21:23;12.52;;;2.55;;
24173;SDS011;12324;48.146;11.502;2022-10-26T15:23:51;4.05;;;2.13;;
24173;SDS011;12324;48.146;11.502;2022-10-26T15:26:19;6.30;;;2.25;;
24173;SDS011;12324;48.146;11.502;2022-10-26T15:28:46;8.82;;;2.42;;
24173;SDS011;12324;48.146;11.502;2022-10-26T15:36:24;7.10;;;2.07;;
24173;SDS011;12324;48.146;11.502;2022-10-26T15:38:52;6.65;;;2.50;;
24173;SDS011;12324;48.146;11.502;2022-10-26T15:43:56;6.90;;;2.53;;
24173;SDS011;12324;48.146;11.502;2022-10-26T15:46:24;12.43;;;2.17;;
24173;SDS011;12324;48.146;11.502;2022-10-26T15:48:55;8.48;;;2.22;;
24173;SDS011;12324;48.146;11.502;2022-10-26T15:51:23;5.95;;;2.13;;
24173;SDS011;12324;48.146;11.502;2022-10-26T15:53:50;6.90;;;2.78;;
24173;SDS011;12324;48.146;11.502;2022-10-26T15:56:18;9.88;;;2.85;;
24173;SDS011;12324;48.146;11.502;2022-10-26T15:58:45;9.55;;;2.85;;
24173;SDS011;12324;48.146;11.502;2022-10-26T16:01:14;12.32;;;4.50;;
24173;SDS011;12324;48.146;11.502;2022-10-26T16:03:42;12.68;;;3.50;;
24173;SDS011;12324;48.146;11.502;2022-10-26T16:06:14;10.88;;;3.90;;
24173;SDS011;12324;48.146;11.502;2022-10-26T16:08:43;12.43;;;3.10;;
24173;SDS011;12324;48.146;11.502;2022-10-26T16:11:12;28.55;;;9.07;;
24173;SDS011;12324;48.146;11.502;2022-10-26T16:13:39;21.88;;;8.77;;
24173;SDS011;12324;48.146;11.502;2022-10-26T16:16:08;18.90;;;6.65;;
24173;SDS011;12324;48.146;11.502;2022-10-26T16:18:37;19.08;;;5.90;;
24173;SDS011;12324;48.146;11.502;2022-10-26T16:21:04;16.50;;;5.18;;
24173;SDS011;12324;48.146;11.502;2022-10-26T16:23:31;10.88;;;3.63;;
24173;SDS011;12324;48.146;11.502;2022-10-26T16:25:58;12.90;;;3.47;;
24173;SDS011;12324;48.146;11.502;2022-10-26T16:28:25;11.70;;;3.65;;
24173;SDS011;12324;48.146;11.502;2022-10-26T16:30:57;10.20;;;3.38;;
24173;SDS011;12324;48.146;11.502;2022-10-26T16:33:24;10.70;;;3.70;;
24173;SDS011;12324;48.146;11.502;2022-10-26T16:35:55;10.55;;;3.67;;
24173;SDS011;12324;48.146;11.502;2022-10-26T16:38:22;11.50;;;3.47;;
24173;SDS011;12324;48.146;11.502;2022-10-26T16:40:50;9.40;;;3.75;;
24173;SDS011;12324;48.146;11.502;2022-10-26T16:43:17;8.38;;;2.95;;
24173;SDS011;12324;48.146;11.502;2022-10-26T16:45:44;14.20;;;4.47;;
24173;SDS011;12324;48.146;11.502;2022-10-26T16:48:11;28.55;;;11.88;;
24173;SDS011;12324;48.146;11.502;2022-10-26T16:50:41;15.68;;;6.30;;
24173;SDS011;12324;48.146;11.502;2022-10-26T16:53:08;9.32;;;3.95;;
24173;SDS011;12324;48.146;11.502;2022-10-26T16:55:35;13.90;;;4.15;;
24173;SDS011;12324;48.146;11.502;2022-10-26T16:58:02;31.98;;;18.25;;
24173;SDS011;12324;48.146;11.502;2022-10-26T17:00:29;22.08;;;11.98;;
24173;SDS011;12324;48.146;11.502;2022-10-26T17:02:56;17.33;;;6.68;;